sensor_id;sensor_type;location;lat;lon;timestamp;temperature;humidity
42347;DHT22;75728;51.856;6.314;2024-03-23T00:55:12;21.00;99.90
42347;DHT22;75728;51.856;6.314;2024-03-23T00:57:38;20.90;99.90
42347;DHT22;75728;51.856;6.314;2024-03-23T01:00:04;21.00;99.90
42347;DHT22;75728;51.856;6.314;2024-03-23T01:02:32;21.00;99.90
42347;DHT22;75728;51.856;6.314;2024-03-23T01:04:57;20.90;99.90
42347;DHT22;75728;51.856;6.314;2024-03-23T01:07:23;20.90;99.90
42347;DHT22;75728;51.856;6.314;2024-03-23T01:09:48;20.90;99.90
42347;DHT22;75728;51.856;6.314;2024-03-23T01:12:14;20.90;99.90
42347;DHT22;75728;51.856;6.314;2024-03-23T01:14:40;20.90;99.90
42347;DHT22;75728;51.856;6.314;2024-03-23T01:17:05;20.90;99.90
42347;DHT22;75728;51.856;6.314;2024-03-23T01:19:31;20.90;99.90
42347;DHT22;75728;51.856;6.314;2024-03-23T01:21:56;20.90;99.90
42347;DHT22;75728;51.856;6.314;2024-03-23T01:24:22;20.90;99.90
42347;DHT22;75728;51.856;6.314;2024-03-23T01:26:47;21.00;99.90
42347;DHT22;75728;51.856;6.314;2024-03-23T01:29:13;20.90;99.90
42347;DHT22;75728;51.856;6.314;2024-03-23T01:31:39;20.90;99.90
42347;DHT22;75728;51.856;6.314;2024-03-23T01:34:04;20.90;99.90
42347;DHT22;75728;51.856;6.314;2024-03-23T01:36:30;20.90;99.90
42347;DHT22;75728;51.856;6.314;2024-03-23T01:38:55;20.90;99.90
42347;DHT22;75728;51.856;6.314;2024-03-23T01:41:21;20.90;99.90
42347;DHT22;75728;51.856;6.314;2024-03-23T01:43:46;20.90;99.90
42347;DHT22;75728;51.856;6.314;2024-03-23T01:46:13;20.90;99.90
42347;DHT22;75728;51.856;6.314;2024-03-23T01:48:38;20.90;99.90
42347;DHT22;75728;51.856;6.314;2024-03-23T01:51:04;20.90;99.90
42347;DHT22;75728;51.856;6.314;2024-03-23T01:53:30;20.90;99.90
42347;DHT22;75728;51.856;6.314;2024-03-23T01:55:56;20.90;99.90
42347;DHT22;75728;51.856;6.314;2024-03-23T01:58:22;20.90;99.90
42347;DHT22;75728;51.856;6.314;2024-03-23T02:00:48;20.90;99.90
42347;DHT22;75728;51.856;6.314;2024-03-23T02:03:27;20.90;99.90
42347;DHT22;75728;51.856;6.314;2024-03-23T02:05:53;20.90;99.90
42347;DHT22;75728;51.856;6.314;2024-03-23T02:08:21;20.90;99.90
42347;DHT22;75728;51.856;6.314;2024-03-23T02:10:48;20.90;99.90
42347;DHT22;75728;51.856;6.314;2024-03-23T02:13:15;20.90;99.90
42347;DHT22;75728;51.856;6.314;2024-03-23T02:15:41;20.80;99.90
42347;DHT22;75728;51.856;6.314;2024-03-23T02:18:10;20.90;99.90
42347;DHT22;75728;51.856;6.314;2024-03-23T02:20:36;20.90;99.90
42347;DHT22;75728;51.856;6.314;2024-03-23T02:23:02;20.80;99.90
42347;DHT22;75728;51.856;6.314;2024-03-23T02:25:28;20.80;99.90
42347;DHT22;75728;51.856;6.314;2024-03-23T02:27:54;20.90;99.90
42347;DHT22;75728;51.856;6.314;2024-03-23T02:30:20;20.80;99.90
42347;DHT22;75728;51.856;6.314;2024-03-23T02:32:46;20.80;99.90
42347;DHT22;75728;51.856;6.314;2024-03-23T02:35:12;20.90;99.90
42347;DHT22;75728;51.856;6.314;2024-03-23T02:37:37;20.80;99.90
42347;DHT22;75728;51.856;6.314;2024-03-23T02:40:03;20.80;99.90
42347;DHT22;75728;51.856;6.314;2024-03-23T02:42:29;20.80;99.90
42347;DHT22;75728;51.856;6.314;2024-03-23T02:44:54;20.80;99.90
42347;DHT22;75728;51.856;6.314;2024-03-23T02:47:20;20.80;99.90
42347;DHT22;75728;51.856;6.314;2024-03-23T02:49:46;20.90;99.90
42347;DHT22;75728;51.856;6.314;2024-03-23T02:52:11;20.80;99.90
42347;DHT22;75728;51.856;6.314;2024-03-23T02:54:37;20.80;99.90
42347;DHT22;75728;51.856;6.314;2024-03-23T02:57:02;20.80;99.90
42347;DHT22;75728;51.856;6.314;2024-03-23T02:59:28;20.80;99.90
42347;DHT22;75728;51.856;6.314;2024-03-23T03:01:54;20.80;99.90
42347;DHT22;75728;51.856;6.314;2024-03-23T03:04:19;20.80;99.90
42347;DHT22;75728;51.856;6.314;2024-03-23T03:06:47;20.90;99.90
42347;DHT22;75728;51.856;6.314;2024-03-23T03:09:13;20.80;99.90
42347;DHT22;75728;51.856;6.314;2024-03-23T03:11:38;20.80;99.90
42347;DHT22;75728;51.856;6.314;2024-03-23T03:14:04;20.80;99.90
42347;DHT22;75728;51.856;6.314;2024-03-23T03:16:32;20.80;99.90
42347;DHT22;75728;51.856;6.314;2024-03-23T03:18:58;20.90;99.90
42347;DHT22;75728;51.856;6.314;2024-03-23T03:21:23;20.80;99.90
42347;DHT22;75728;51.856;6.314;2024-03-23T03:23:49;20.90;99.90
42347;DHT22;75728;51.856;6.314;2024-03-23T03:26:16;20.90;99.90
42347;DHT22;75728;51.856;6.314;2024-03-23T03:28:43;20.80;99.90
42347;DHT22;75728;51.856;6.314;2024-03-23T03:31:10;20.80;99.90
42347;DHT22;75728;51.856;6.314;2024-03-23T03:33:36;20.90;99.90
42347;DHT22;75728;51.856;6.314;2024-03-23T03:36:02;21.00;99.90
42347;DHT22;75728;51.856;6.314;2024-03-23T03:38:27;21.00;99.90
42347;DHT22;75728;51.856;6.314;2024-03-23T03:40:53;21.00;99.90
42347;DHT22;75728;51.856;6.314;2024-03-23T03:43:19;21.00;99.90
42347;DHT22;75728;51.856;6.314;2024-03-23T03:45:54;21.00;99.90
42347;DHT22;75728;51.856;6.314;2024-03-23T03:48:20;21.00;99.90
42347;DHT22;75728;51.856;6.314;2024-03-23T03:50:46;21.00;99.90
42347;DHT22;75728;51.856;6.314;2024-03-23T03:53:11;21.00;99.90
42347;DHT22;75728;51.856;6.314;2024-03-23T03:55:37;21.00;99.90
42347;DHT22;75728;51.856;6.314;2024-03-23T03:58:03;21.00;99.90
42347;DHT22;75728;51.856;6.314;2024-03-23T04:00:30;21.00;99.90
42347;DHT22;75728;51.856;6.314;2024-03-23T04:02:56;21.00;99.90
42347;DHT22;75728;51.856;6.314;2024-03-23T04:05:21;20.90;99.90
42347;DHT22;75728;51.856;6.314;2024-03-23T04:07:48;20.90;99.90
42347;DHT22;75728;51.856;6.314;2024-03-23T04:10:14;21.00;99.90
42347;DHT22;75728;51.856;6.314;2024-03-23T04:12:43;21.00;99.90
42347;DHT22;75728;51.856;6.314;2024-03-23T04:15:09;20.90;99.90
42347;DHT22;75728;51.856;6.314;2024-03-23T04:17:35;21.00;99.90
42347;DHT22;75728;51.856;6.314;2024-03-23T04:20:02;21.00;99.90
42347;DHT22;75728;51.856;6.314;2024-03-23T04:22:29;20.90;99.90
42347;DHT22;75728;51.856;6.314;2024-03-23T04:24:56;20.90;99.90
42347;DHT22;75728;51.856;6.314;2024-03-23T04:27:22;20.90;99.90
42347;DHT22;75728;51.856;6.314;2024-03-23T04:29:52;20.90;99.90
42347;DHT22;75728;51.856;6.314;2024-03-23T04:32:18;21.00;99.90
42347;DHT22;75728;51.856;6.314;2024-03-23T04:34:44;20.90;99.90
42347;DHT22;75728;51.856;6.314;2024-03-23T04:37:10;21.00;99.90
42347;DHT22;75728;51.856;6.314;2024-03-23T04:39:36;21.00;99.90
42347;DHT22;75728;51.856;6.314;2024-03-23T04:42:03;20.90;99.90
42347;DHT22;75728;51.856;6.314;2024-03-23T04:44:29;20.90;99.90
42347;DHT22;75728;51.856;6.314;2024-03-23T04:46:54;20.90;99.90
42347;DHT22;75728;51.856;6.314;2024-03-23T04:49:20;20.90;99.90
42347;DHT22;75728;51.856;6.314;2024-03-23T04:51:45;20.90;99.90
42347;DHT22;75728;51.856;6.314;2024-03-23T04:54:12;20.90;99.90
42347;DHT22;75728;51.856;6.314;2024-03-23T04:56:38;20.90;99.90
42347;DHT22;75728;51.856;6.314;2024-03-23T04:59:03;20.90;99.90
42347;DHT22;75728;51.856;6.314;2024-03-23T05:01:31;20.90;99.90
42347;DHT22;75728;51.856;6.314;2024-03-23T05:03:57;20.90;99.90
42347;DHT22;75728;51.856;6.314;2024-03-23T05:06:23;20.90;99.90
42347;DHT22;75728;51.856;6.314;2024-03-23T05:08:49;20.90;99.90
42347;DHT22;75728;51.856;6.314;2024-03-23T05:11:15;20.90;99.90
42347;DHT22;75728;51.856;6.314;2024-03-23T05:13:41;20.90;99.90
42347;DHT22;75728;51.856;6.314;2024-03-23T05:16:07;20.90;99.90
42347;DHT22;75728;51.856;6.314;2024-03-23T05:18:32;20.90;99.90
42347;DHT22;75728;51.856;6.314;2024-03-23T05:20:58;20.90;99.90
42347;DHT22;75728;51.856;6.314;2024-03-23T05:23:25;20.90;99.90
42347;DHT22;75728;51.856;6.314;2024-03-23T05:25:51;20.90;99.90
42347;DHT22;75728;51.856;6.314;2024-03-23T05:28:23;20.90;99.90
42347;DHT22;75728;51.856;6.314;2024-03-23T05:30:55;20.90;99.90
42347;DHT22;75728;51.856;6.314;2024-03-23T05:33:22;20.90;99.90
42347;DHT22;75728;51.856;6.314;2024-03-23T05:35:56;20.90;99.90
42347;DHT22;75728;51.856;6.314;2024-03-23T05:38:23;20.90;99.90
42347;DHT22;75728;51.856;6.314;2024-03-23T05:40:58;20.90;99.90
42347;DHT22;75728;51.856;6.314;2024-03-23T05:43:24;20.90;99.90
42347;DHT22;75728;51.856;6.314;2024-03-23T05:45:57;20.90;99.90
42347;DHT22;75728;51.856;6.314;2024-03-23T05:48:24;20.90;99.90
42347;DHT22;75728;51.856;6.314;2024-03-23T05:50:50;20.80;99.90
42347;DHT22;75728;51.856;6.314;2024-03-23T05:53:17;20.90;99.90
42347;DHT22;75728;51.856;6.314;2024-03-23T05:55:43;20.90;99.90
42347;DHT22;75728;51.856;6.314;2024-03-23T05:58:09;20.90;99.90
42347;DHT22;75728;51.856;6.314;2024-03-23T06:00:35;20.90;99.90
42347;DHT22;75728;51.856;6.314;2024-03-23T06:03:01;20.90;99.90
42347;DHT22;75728;51.856;6.314;2024-03-23T06:05:26;20.90;99.90
42347;DHT22;75728;51.856;6.314;2024-03-23T06:07:52;20.90;99.90
42347;DHT22;75728;51.856;6.314;2024-03-23T06:10:18;20.90;99.90
42347;DHT22;75728;51.856;6.314;2024-03-23T06:12:46;20.90;99.90
42347;DHT22;75728;51.856;6.314;2024-03-23T06:15:11;20.90;99.90
42347;DHT22;75728;51.856;6.314;2024-03-23T06:17:38;20.90;99.90
42347;DHT22;75728;51.856;6.314;2024-03-23T06:20:04;20.90;99.90
42347;DHT22;75728;51.856;6.314;2024-03-23T06:22:31;20.90;99.90
42347;DHT22;75728;51.856;6.314;2024-03-23T06:24:57;20.90;99.90
42347;DHT22;75728;51.856;6.314;2024-03-23T06:27:23;20.90;99.90
42347;DHT22;75728;51.856;6.314;2024-03-23T06:29:48;20.90;99.90
42347;DHT22;75728;51.856;6.314;2024-03-23T06:32:14;20.90;99.90
42347;DHT22;75728;51.856;6.314;2024-03-23T06:34:41;20.90;99.90
42347;DHT22;75728;51.856;6.314;2024-03-23T06:37:07;20.90;99.90
42347;DHT22;75728;51.856;6.314;2024-03-23T06:39:35;20.80;99.90
42347;DHT22;75728;51.856;6.314;2024-03-23T06:42:01;20.90;99.90
42347;DHT22;75728;51.856;6.314;2024-03-23T06:44:26;20.80;99.90
42347;DHT22;75728;51.856;6.314;2024-03-23T06:46:52;20.90;99.90
42347;DHT22;75728;51.856;6.314;2024-03-23T06:49:17;20.90;99.90
42347;DHT22;75728;51.856;6.314;2024-03-23T06:51:45;20.90;99.90
42347;DHT22;75728;51.856;6.314;2024-03-23T06:54:11;20.90;99.90
42347;DHT22;75728;51.856;6.314;2024-03-23T06:56:36;20.90;99.90
42347;DHT22;75728;51.856;6.314;2024-03-23T06:59:02;20.90;99.90
42347;DHT22;75728;51.856;6.314;2024-03-23T07:01:27;20.80;99.90
42347;DHT22;75728;51.856;6.314;2024-03-23T07:03:54;20.80;99.90
42347;DHT22;75728;51.856;6.314;2024-03-23T07:06:20;20.90;99.90
42347;DHT22;75728;51.856;6.314;2024-03-23T07:08:45;20.80;99.90
42347;DHT22;75728;51.856;6.314;2024-03-23T07:11:11;20.80;99.90
42347;DHT22;75728;51.856;6.314;2024-03-23T07:13:36;20.90;99.90
42347;DHT22;75728;51.856;6.314;2024-03-23T07:16:02;20.80;99.90
42347;DHT22;75728;51.856;6.314;2024-03-23T07:18:28;20.90;99.90
42347;DHT22;75728;51.856;6.314;2024-03-23T07:20:57;20.90;99.90
42347;DHT22;75728;51.856;6.314;2024-03-23T07:23:24;20.90;99.90
42347;DHT22;75728;51.856;6.314;2024-03-23T07:26:04;20.90;99.90
42347;DHT22;75728;51.856;6.314;2024-03-23T07:28:33;20.90;99.90
42347;DHT22;75728;51.856;6.314;2024-03-23T07:31:04;20.80;99.90
42347;DHT22;75728;51.856;6.314;2024-03-23T07:33:30;20.80;99.90
42347;DHT22;75728;51.856;6.314;2024-03-23T07:35:55;20.90;99.90
42347;DHT22;75728;51.856;6.314;2024-03-23T07:38:21;20.90;99.90
42347;DHT22;75728;51.856;6.314;2024-03-23T07:40:47;20.90;99.90
42347;DHT22;75728;51.856;6.314;2024-03-23T07:43:15;20.90;99.90
42347;DHT22;75728;51.856;6.314;2024-03-23T07:45:40;20.80;99.90
42347;DHT22;75728;51.856;6.314;2024-03-23T07:48:06;20.90;99.90
42347;DHT22;75728;51.856;6.314;2024-03-23T07:50:32;20.80;99.90
42347;DHT22;75728;51.856;6.314;2024-03-23T07:52:57;20.90;99.90
42347;DHT22;75728;51.856;6.314;2024-03-23T07:55:23;20.80;99.90
42347;DHT22;75728;51.856;6.314;2024-03-23T07:57:51;20.80;99.90
42347;DHT22;75728;51.856;6.314;2024-03-23T08:00:17;20.80;99.90
42347;DHT22;75728;51.856;6.314;2024-03-23T08:02:42;20.80;99.90
42347;DHT22;75728;51.856;6.314;2024-03-23T08:05:08;20.80;96.20
42347;DHT22;75728;51.856;6.314;2024-03-23T08:07:33;20.70;96.00
42347;DHT22;75728;51.856;6.314;2024-03-23T08:09:59;20.60;96.30
42347;DHT22;75728;51.856;6.314;2024-03-23T08:12:25;20.50;96.30
42347;DHT22;75728;51.856;6.314;2024-03-23T08:14:51;20.50;97.00
42347;DHT22;75728;51.856;6.314;2024-03-23T08:17:16;20.50;97.00
42347;DHT22;75728;51.856;6.314;2024-03-23T08:19:42;20.50;97.10
42347;DHT22;75728;51.856;6.314;2024-03-23T08:22:07;20.50;97.30
42347;DHT22;75728;51.856;6.314;2024-03-23T08:24:34;20.50;97.30
42347;DHT22;75728;51.856;6.314;2024-03-23T08:27:00;20.50;96.70
42347;DHT22;75728;51.856;6.314;2024-03-23T08:29:26;20.50;97.10
42347;DHT22;75728;51.856;6.314;2024-03-23T08:31:51;20.40;96.90
42347;DHT22;75728;51.856;6.314;2024-03-23T08:34:17;20.40;96.90
42347;DHT22;75728;51.856;6.314;2024-03-23T08:36:43;20.40;97.70
42347;DHT22;75728;51.856;6.314;2024-03-23T08:39:08;20.40;97.50
42347;DHT22;75728;51.856;6.314;2024-03-23T08:41:34;20.40;97.10
42347;DHT22;75728;51.856;6.314;2024-03-23T08:44:00;20.40;96.70
42347;DHT22;75728;51.856;6.314;2024-03-23T08:46:25;20.40;96.70
42347;DHT22;75728;51.856;6.314;2024-03-23T08:48:51;20.40;96.80
42347;DHT22;75728;51.856;6.314;2024-03-23T08:51:18;20.40;96.70
42347;DHT22;75728;51.856;6.314;2024-03-23T08:53:44;20.40;97.00
42347;DHT22;75728;51.856;6.314;2024-03-23T08:56:11;20.40;96.90
42347;DHT22;75728;51.856;6.314;2024-03-23T08:58:37;20.40;96.80
42347;DHT22;75728;51.856;6.314;2024-03-23T09:01:08;20.40;96.90
42347;DHT22;75728;51.856;6.314;2024-03-23T09:03:34;20.40;95.80
42347;DHT22;75728;51.856;6.314;2024-03-23T09:06:01;20.40;95.90
42347;DHT22;75728;51.856;6.314;2024-03-23T09:08:27;20.40;95.80
42347;DHT22;75728;51.856;6.314;2024-03-23T09:10:53;20.40;95.80
42347;DHT22;75728;51.856;6.314;2024-03-23T09:13:18;20.40;95.90
42347;DHT22;75728;51.856;6.314;2024-03-23T09:15:51;20.40;95.70
42347;DHT22;75728;51.856;6.314;2024-03-23T09:18:21;20.40;95.60
42347;DHT22;75728;51.856;6.314;2024-03-23T09:20:47;20.50;95.90
42347;DHT22;75728;51.856;6.314;2024-03-23T09:23:12;20.50;95.90
42347;DHT22;75728;51.856;6.314;2024-03-23T09:25:39;20.50;96.10
42347;DHT22;75728;51.856;6.314;2024-03-23T09:28:05;20.50;95.90
42347;DHT22;75728;51.856;6.314;2024-03-23T09:30:32;20.60;95.50
42347;DHT22;75728;51.856;6.314;2024-03-23T09:32:59;20.60;95.30
42347;DHT22;75728;51.856;6.314;2024-03-23T09:35:24;20.50;95.30
42347;DHT22;75728;51.856;6.314;2024-03-23T09:37:50;20.50;94.90
42347;DHT22;75728;51.856;6.314;2024-03-23T09:40:16;20.50;95.40
42347;DHT22;75728;51.856;6.314;2024-03-23T09:42:42;20.50;95.00
42347;DHT22;75728;51.856;6.314;2024-03-23T09:45:17;20.50;95.00
42347;DHT22;75728;51.856;6.314;2024-03-23T09:47:45;20.50;95.00
42347;DHT22;75728;51.856;6.314;2024-03-23T09:50:12;20.50;94.70
42347;DHT22;75728;51.856;6.314;2024-03-23T09:52:38;20.50;94.80
42347;DHT22;75728;51.856;6.314;2024-03-23T09:55:04;20.50;95.00
42347;DHT22;75728;51.856;6.314;2024-03-23T09:57:30;20.50;94.70
42347;DHT22;75728;51.856;6.314;2024-03-23T09:59:55;20.50;94.70
42347;DHT22;75728;51.856;6.314;2024-03-23T10:02:24;20.50;94.80
42347;DHT22;75728;51.856;6.314;2024-03-23T10:04:49;20.50;94.80
42347;DHT22;75728;51.856;6.314;2024-03-23T10:07:18;20.50;94.90
42347;DHT22;75728;51.856;6.314;2024-03-23T10:09:44;20.50;95.00
42347;DHT22;75728;51.856;6.314;2024-03-23T10:12:16;20.50;94.90
42347;DHT22;75728;51.856;6.314;2024-03-23T10:14:42;20.40;95.10
42347;DHT22;75728;51.856;6.314;2024-03-23T10:19:41;20.50;95.30
42347;DHT22;75728;51.856;6.314;2024-03-23T10:22:09;20.50;95.60
42347;DHT22;75728;51.856;6.314;2024-03-23T10:24:34;20.50;95.60
42347;DHT22;75728;51.856;6.314;2024-03-23T10:27:00;20.50;95.60
42347;DHT22;75728;51.856;6.314;2024-03-23T10:29:25;20.50;95.50
42347;DHT22;75728;51.856;6.314;2024-03-23T10:31:53;20.50;95.20
42347;DHT22;75728;51.856;6.314;2024-03-23T10:34:26;20.50;95.10
42347;DHT22;75728;51.856;6.314;2024-03-23T10:36:56;20.50;95.00
42347;DHT22;75728;51.856;6.314;2024-03-23T10:39:23;20.50;94.40
42347;DHT22;75728;51.856;6.314;2024-03-23T10:41:53;20.50;94.20
42347;DHT22;75728;51.856;6.314;2024-03-23T10:44:21;20.50;94.50
42347;DHT22;75728;51.856;6.314;2024-03-23T10:46:50;20.50;94.20
42347;DHT22;75728;51.856;6.314;2024-03-23T10:49:16;20.50;94.70
42347;DHT22;75728;51.856;6.314;2024-03-23T10:51:44;20.50;94.30
42347;DHT22;75728;51.856;6.314;2024-03-23T10:54:11;20.50;94.70
42347;DHT22;75728;51.856;6.314;2024-03-23T10:57:11;20.50;95.40
42347;DHT22;75728;51.856;6.314;2024-03-23T10:59:38;20.50;95.30
42347;DHT22;75728;51.856;6.314;2024-03-23T11:02:04;20.50;95.20
42347;DHT22;75728;51.856;6.314;2024-03-23T11:04:35;20.50;95.90
42347;DHT22;75728;51.856;6.314;2024-03-23T11:07:02;20.50;95.70
42347;DHT22;75728;51.856;6.314;2024-03-23T11:09:43;20.50;94.70
42347;DHT22;75728;51.856;6.314;2024-03-23T11:14:50;20.50;94.20
42347;DHT22;75728;51.856;6.314;2024-03-23T11:17:22;20.50;94.10
42347;DHT22;75728;51.856;6.314;2024-03-23T11:19:57;20.50;94.60
42347;DHT22;75728;51.856;6.314;2024-03-23T11:22:44;20.50;94.50
42347;DHT22;75728;51.856;6.314;2024-03-23T11:27:46;20.50;94.20
42347;DHT22;75728;51.856;6.314;2024-03-23T11:30:25;20.50;95.70
42347;DHT22;75728;51.856;6.314;2024-03-23T11:32:53;20.50;95.10
42347;DHT22;75728;51.856;6.314;2024-03-23T11:35:36;20.50;95.40
42347;DHT22;75728;51.856;6.314;2024-03-23T11:38:12;20.60;95.20
42347;DHT22;75728;51.856;6.314;2024-03-23T11:40:39;20.60;95.70
42347;DHT22;75728;51.856;6.314;2024-03-23T11:43:09;20.50;96.20
42347;DHT22;75728;51.856;6.314;2024-03-23T11:45:45;20.60;95.30
42347;DHT22;75728;51.856;6.314;2024-03-23T11:48:15;20.50;95.80
42347;DHT22;75728;51.856;6.314;2024-03-23T11:50:44;20.60;94.60
42347;DHT22;75728;51.856;6.314;2024-03-23T11:53:23;20.60;94.70
42347;DHT22;75728;51.856;6.314;2024-03-23T11:55:58;20.60;94.90
42347;DHT22;75728;51.856;6.314;2024-03-23T11:58:25;20.60;94.90
42347;DHT22;75728;51.856;6.314;2024-03-23T12:01:02;20.50;95.10
42347;DHT22;75728;51.856;6.314;2024-03-23T12:03:29;20.50;94.80
42347;DHT22;75728;51.856;6.314;2024-03-23T12:05:59;20.60;94.30
42347;DHT22;75728;51.856;6.314;2024-03-23T12:08:32;20.50;95.10
42347;DHT22;75728;51.856;6.314;2024-03-23T12:11:15;20.50;94.10
42347;DHT22;75728;51.856;6.314;2024-03-23T12:13:42;20.60;94.20
42347;DHT22;75728;51.856;6.314;2024-03-23T12:16:16;20.60;93.90
42347;DHT22;75728;51.856;6.314;2024-03-23T12:18:43;20.60;93.60
42347;DHT22;75728;51.856;6.314;2024-03-23T12:21:09;20.60;93.90
42347;DHT22;75728;51.856;6.314;2024-03-23T12:23:35;20.60;94.50
42347;DHT22;75728;51.856;6.314;2024-03-23T12:26:01;20.60;93.90
42347;DHT22;75728;51.856;6.314;2024-03-23T12:28:27;20.60;94.20
42347;DHT22;75728;51.856;6.314;2024-03-23T12:30:53;20.60;94.00
42347;DHT22;75728;51.856;6.314;2024-03-23T12:33:22;20.60;93.90
42347;DHT22;75728;51.856;6.314;2024-03-23T12:35:51;20.60;94.00
42347;DHT22;75728;51.856;6.314;2024-03-23T12:38:17;20.60;94.10
42347;DHT22;75728;51.856;6.314;2024-03-23T12:40:49;20.60;94.80
42347;DHT22;75728;51.856;6.314;2024-03-23T12:43:16;20.60;95.60
42347;DHT22;75728;51.856;6.314;2024-03-23T12:45:46;20.60;95.40
42347;DHT22;75728;51.856;6.314;2024-03-23T12:48:12;20.60;96.10
42347;DHT22;75728;51.856;6.314;2024-03-23T12:50:38;20.70;95.10
42347;DHT22;75728;51.856;6.314;2024-03-23T12:53:04;20.70;95.10
42347;DHT22;75728;51.856;6.314;2024-03-23T12:55:29;20.60;94.40
42347;DHT22;75728;51.856;6.314;2024-03-23T12:57:55;20.60;94.20
42347;DHT22;75728;51.856;6.314;2024-03-23T13:00:20;20.70;94.60
42347;DHT22;75728;51.856;6.314;2024-03-23T13:02:46;20.70;93.70
42347;DHT22;75728;51.856;6.314;2024-03-23T13:05:11;20.70;94.40
42347;DHT22;75728;51.856;6.314;2024-03-23T13:07:37;20.70;94.40
42347;DHT22;75728;51.856;6.314;2024-03-23T13:10:04;20.70;94.70
42347;DHT22;75728;51.856;6.314;2024-03-23T13:12:32;20.70;93.90
42347;DHT22;75728;51.856;6.314;2024-03-23T13:14:58;20.70;94.60
42347;DHT22;75728;51.856;6.314;2024-03-23T13:17:25;20.70;94.20
42347;DHT22;75728;51.856;6.314;2024-03-23T13:19:52;20.70;94.50
42347;DHT22;75728;51.856;6.314;2024-03-23T13:22:18;20.70;94.60
42347;DHT22;75728;51.856;6.314;2024-03-23T13:24:44;20.70;94.60
42347;DHT22;75728;51.856;6.314;2024-03-23T13:27:10;20.70;94.10
42347;DHT22;75728;51.856;6.314;2024-03-23T13:29:36;20.70;94.40
42347;DHT22;75728;51.856;6.314;2024-03-23T13:32:03;20.70;94.10
42347;DHT22;75728;51.856;6.314;2024-03-23T13:34:29;20.70;94.20
42347;DHT22;75728;51.856;6.314;2024-03-23T13:36:55;20.70;93.60
42347;DHT22;75728;51.856;6.314;2024-03-23T13:39:24;20.70;93.80
42347;DHT22;75728;51.856;6.314;2024-03-23T13:41:50;20.70;92.90
42347;DHT22;75728;51.856;6.314;2024-03-23T13:44:16;20.70;93.90
42347;DHT22;75728;51.856;6.314;2024-03-23T13:46:42;20.70;93.60
42347;DHT22;75728;51.856;6.314;2024-03-23T13:51:52;20.70;93.90
42347;DHT22;75728;51.856;6.314;2024-03-23T13:54:17;20.70;94.80
42347;DHT22;75728;51.856;6.314;2024-03-23T13:56:43;20.70;94.20
42347;DHT22;75728;51.856;6.314;2024-03-23T13:59:09;20.70;94.90
42347;DHT22;75728;51.856;6.314;2024-03-23T14:01:35;20.70;95.00
42347;DHT22;75728;51.856;6.314;2024-03-23T14:04:01;20.70;95.00
42347;DHT22;75728;51.856;6.314;2024-03-23T14:06:26;20.60;94.70
42347;DHT22;75728;51.856;6.314;2024-03-23T14:08:52;20.70;95.30
42347;DHT22;75728;51.856;6.314;2024-03-23T14:11:18;20.60;94.90
42347;DHT22;75728;51.856;6.314;2024-03-23T14:13:44;20.60;95.10
42347;DHT22;75728;51.856;6.314;2024-03-23T14:16:09;20.70;95.00
42347;DHT22;75728;51.856;6.314;2024-03-23T14:18:35;20.70;95.20
42347;DHT22;75728;51.856;6.314;2024-03-23T14:21:01;20.70;95.10
42347;DHT22;75728;51.856;6.314;2024-03-23T14:23:28;20.60;94.80
42347;DHT22;75728;51.856;6.314;2024-03-23T14:26:00;20.60;95.20
42347;DHT22;75728;51.856;6.314;2024-03-23T14:28:26;20.60;94.20
42347;DHT22;75728;51.856;6.314;2024-03-23T14:30:52;20.70;94.10
42347;DHT22;75728;51.856;6.314;2024-03-23T14:33:20;20.60;94.10
42347;DHT22;75728;51.856;6.314;2024-03-23T14:35:53;20.60;93.60
42347;DHT22;75728;51.856;6.314;2024-03-23T14:38:19;20.70;94.10
42347;DHT22;75728;51.856;6.314;2024-03-23T14:40:46;20.70;93.50
42347;DHT22;75728;51.856;6.314;2024-03-23T14:43:11;20.70;93.80
42347;DHT22;75728;51.856;6.314;2024-03-23T14:45:37;20.70;94.10
42347;DHT22;75728;51.856;6.314;2024-03-23T14:48:03;20.60;94.00
42347;DHT22;75728;51.856;6.314;2024-03-23T14:50:28;20.60;94.10
42347;DHT22;75728;51.856;6.314;2024-03-23T14:52:54;20.60;93.60
42347;DHT22;75728;51.856;6.314;2024-03-23T14:55:20;20.60;93.90
42347;DHT22;75728;51.856;6.314;2024-03-23T14:57:45;20.60;93.60
42347;DHT22;75728;51.856;6.314;2024-03-23T15:00:11;20.60;93.50
42347;DHT22;75728;51.856;6.314;2024-03-23T15:02:37;20.60;93.60
42347;DHT22;75728;51.856;6.314;2024-03-23T15:05:04;20.60;93.50
42347;DHT22;75728;51.856;6.314;2024-03-23T15:07:33;20.60;93.80
42347;DHT22;75728;51.856;6.314;2024-03-23T15:09:58;20.60;93.30
42347;DHT22;75728;51.856;6.314;2024-03-23T15:12:24;20.60;93.40
42347;DHT22;75728;51.856;6.314;2024-03-23T15:14:49;20.60;93.30
42347;DHT22;75728;51.856;6.314;2024-03-23T15:17:15;20.50;93.70
42347;DHT22;75728;51.856;6.314;2024-03-23T15:19:41;20.80;94.70
42347;DHT22;75728;51.856;6.314;2024-03-23T15:22:08;21.10;94.50
42347;DHT22;75728;51.856;6.314;2024-03-23T15:24:34;21.20;94.20
42347;DHT22;75728;51.856;6.314;2024-03-23T15:27:01;20.90;93.90
42347;DHT22;75728;51.856;6.314;2024-03-23T15:29:26;20.60;94.70
42347;DHT22;75728;51.856;6.314;2024-03-23T15:31:52;20.70;95.40
42347;DHT22;75728;51.856;6.314;2024-03-23T15:34:19;20.80;95.10
42347;DHT22;75728;51.856;6.314;2024-03-23T15:36:49;20.80;95.10
42347;DHT22;75728;51.856;6.314;2024-03-23T15:39:16;20.80;95.00
42347;DHT22;75728;51.856;6.314;2024-03-23T15:41:47;20.80;94.50
42347;DHT22;75728;51.856;6.314;2024-03-23T15:44:13;20.90;94.90
42347;DHT22;75728;51.856;6.314;2024-03-23T15:46:39;20.80;95.10
42347;DHT22;75728;51.856;6.314;2024-03-23T15:49:05;20.80;95.10
42347;DHT22;75728;51.856;6.314;2024-03-23T15:51:32;20.90;95.20
42347;DHT22;75728;51.856;6.314;2024-03-23T15:54:02;20.90;95.20
42347;DHT22;75728;51.856;6.314;2024-03-23T15:56:31;20.90;95.20
42347;DHT22;75728;51.856;6.314;2024-03-23T15:58:57;20.90;96.10
42347;DHT22;75728;51.856;6.314;2024-03-23T16:01:31;20.90;95.50
42347;DHT22;75728;51.856;6.314;2024-03-23T16:03:59;20.80;95.80
42347;DHT22;75728;51.856;6.314;2024-03-23T16:06:24;20.80;95.70
42347;DHT22;75728;51.856;6.314;2024-03-23T16:08:50;20.70;95.40
42347;DHT22;75728;51.856;6.314;2024-03-23T16:11:15;20.70;95.10
42347;DHT22;75728;51.856;6.314;2024-03-23T16:13:41;20.70;95.00
42347;DHT22;75728;51.856;6.314;2024-03-23T16:16:08;20.70;96.20
42347;DHT22;75728;51.856;6.314;2024-03-23T16:18:37;20.60;95.90
42347;DHT22;75728;51.856;6.314;2024-03-23T16:21:06;20.60;95.30
42347;DHT22;75728;51.856;6.314;2024-03-23T16:23:33;20.60;94.50
42347;DHT22;75728;51.856;6.314;2024-03-23T16:25:59;20.60;95.20
42347;DHT22;75728;51.856;6.314;2024-03-23T16:28:34;20.60;94.60
42347;DHT22;75728;51.856;6.314;2024-03-23T16:31:04;20.60;94.70
42347;DHT22;75728;51.856;6.314;2024-03-23T16:33:31;20.60;94.30